Flight Track Log - Related Links

Times and Time Zones

All times are in EDT time to prevent confusion due to time zone crossing. See the FDX1347 flight status page for this flight to view local times or setup timezone preferences in your user account.

Time Position Orientation Groundspeed Altitude Reporting Facility
EDT Latitude Longitude Course Direction KTS MPH feet Rate Location/Type
Wed 09:59:56 PM 42.7278 -73.8081 179° South 159 183 1,300  Level Boston Center
Wed 10:00:14 PM 42.7089 -73.8075 179° South 177 204 2,000 2,714 Climbing Boston Center
Wed 10:01:20 PM 42.6894 -73.8750 249° West 226 260 5,100 2,895 Climbing Boston Center
Wed 10:02:08 PM 42.6989 -73.9375 282° West 241 277 7,500 3,278 Climbing Boston Center
Wed 10:03:08 PM 42.7103 -74.0253 280° West 246 283 11,000 3,000 Climbing Boston Center
Wed 10:04:08 PM 42.7233 -74.1303 280° West 266 306 13,500 2,750 Climbing Boston Center
Wed 10:05:08 PM 42.7400 -74.2692 279° West 323 372 16,500 2,800 Climbing Boston Center
Wed 10:06:08 PM 42.7464 -74.3853 274° West 344 396 19,100 2,500 Climbing Boston Center
Wed 10:07:08 PM 42.7525 -74.5183 274° West 350 403 21,500 1,880 Climbing Boston Center
Wed 10:13:03 PM 42.4370 -75.2960 274° West 413 475 32,100 1,777 Climbing FlightAware ADS-B
Wed 10:13:43 PM 42.3930 -75.3800 235° Southwest 409 471 33,200 1,800 Climbing FlightAware ADS-B
Wed 10:14:23 PM 42.3480 -75.4640 234° Southwest 404 465 34,500 1,765 Climbing FlightAware ADS-B
Wed 10:15:08 PM 42.3040 -75.5450 234° Southwest 399 459 35,700 1,553 Climbing FlightAware ADS-B
Wed 10:15:48 PM 42.2590 -75.6270 233° Southwest 397 457 36,700 1,326 Climbing FlightAware ADS-B
Wed 10:16:43 PM 42.2010 -75.7330 234° Southwest 398 458 37,800 1,137 Climbing FlightAware ADS-B
Wed 10:17:23 PM 42.1590 -75.8080 233° Southwest 394 453 38,500 1,040 Climbing FlightAware ADS-B
Wed 10:17:58 PM 42.1200 -75.8810 234° Southwest 394 453 39,100 870 Climbing FlightAware ADS-B
Wed 10:18:32 PM 42.0752 -75.9628 234° Southwest 398 458 39,500 727 Climbing FlightAware ADS-B
Wed 10:19:04 PM 42.0396 -76.0265 233° Southwest 399 459 39,900 469 Climbing FlightAware ADS-B
Wed 10:19:36 PM 42.0047 -76.0901 234° Southwest 399 459 40,000 97 Climbing FlightAware ADS-B
Wed 10:20:06 PM 41.9715 -76.1496 233° Southwest 399 459 40,000  Level FlightAware ADS-B
Wed 10:20:38 PM 41.9360 -76.2133 233° Southwest 400 460 40,000  Level FlightAware ADS-B
Wed 10:21:08 PM 41.9026 -76.2730 233° Southwest 402 463 40,000  Level FlightAware ADS-B
Wed 10:21:41 PM 41.8665 -76.3369 233° Southwest 404 465 40,000  Level FlightAware ADS-B
Wed 10:22:11 PM 41.8325 -76.3972 233° Southwest 405 466 40,000  Level FlightAware ADS-B
Wed 10:22:43 PM 41.7957 -76.4636 233° Southwest 406 467 40,000  Level FlightAware ADS-B
Wed 10:23:15 PM 41.7605 -76.5258 233° Southwest 405 466 40,000  Level FlightAware ADS-B
Wed 10:23:50 PM 41.7202 -76.5979 233° Southwest 406 467 40,000  Level FlightAware ADS-B
Wed 10:24:22 PM 41.6846 -76.6620 233° Southwest 407 468 40,000  Level FlightAware ADS-B
Wed 10:24:54 PM 41.6481 -76.7263 233° Southwest 408 470 40,000  Level FlightAware ADS-B
Wed 10:25:25 PM 41.6131 -76.7866 232° Southwest 410 472 40,000  Level FlightAware ADS-B
Wed 10:25:57 PM 41.5761 -76.8533 233° Southwest 410 472 40,000  Level FlightAware ADS-B
Wed 10:26:27 PM 41.5415 -76.9139 233° Southwest 411 473 40,000  Level FlightAware ADS-B
Wed 10:26:58 PM 41.5064 -76.9743 232° Southwest 411 473 40,000  Level FlightAware ADS-B
Wed 10:27:29 PM 41.4703 -77.0388 233° Southwest 411 473 40,000  Level FlightAware ADS-B
Wed 10:27:59 PM 41.4353 -77.0990 232° Southwest 408 470 40,000  Level FlightAware ADS-B
Wed 10:28:31 PM 41.3989 -77.1628 233° Southwest 407 468 40,000  Level FlightAware ADS-B
Wed 10:29:02 PM 41.3640 -77.2225 232° Southwest 407 468 40,000  Level FlightAware ADS-B
Wed 10:29:32 PM 41.3294 -77.2841 233° Southwest 407 468 40,000  Level FlightAware ADS-B
Wed 10:30:05 PM 41.2920 -77.3476 232° Southwest 406 467 40,000  Level FlightAware ADS-B
Wed 10:30:43 PM 41.2570 -77.4090 233° Southwest 405 466 40,000  Level FlightAware ADS-B
Wed 10:30:59 PM 41.2301 -77.4543 232° Southwest 406 467 40,000  Level FlightAware ADS-B
Wed 10:31:51 PM 41.1698 -77.5589 233° Southwest 405 466 40,000  Level FlightAware ADS-B
Wed 10:32:28 PM 41.1283 -77.6297 232° Southwest 406 467 40,000  Level FlightAware ADS-B
Wed 10:33:16 PM 41.0724 -77.7261 232° Southwest 406 467 40,000  Level FlightAware ADS-B
Wed 10:33:56 PM 41.0262 -77.8047 232° Southwest 407 468 40,000  Level FlightAware ADS-B
Wed 10:34:31 PM 40.9859 -77.8737 232° Southwest 408 470 40,000  Level FlightAware ADS-B
Wed 10:35:22 PM 40.9276 -77.9723 232° Southwest 410 472 40,000  Level FlightAware ADS-B
Wed 10:36:23 PM 40.8670 -78.0880 235° Southwest 410 472 40,000  Level FlightAware ADS-B
Wed 10:37:03 PM 40.8250 -78.1710 236° Southwest 412 474 40,000  Level FlightAware ADS-B
Wed 10:37:43 PM 40.7840 -78.2550 237° Southwest 413 475 40,000  Level FlightAware ADS-B
Wed 10:38:23 PM 40.7420 -78.3370 236° Southwest 413 475 40,000  Level FlightAware ADS-B
Wed 10:39:08 PM 40.6980 -78.4230 236° Southwest 415 478 40,000  Level FlightAware ADS-B
Wed 10:39:48 PM 40.6490 -78.5190 236° Southwest 415 478 40,000  Level FlightAware ADS-B
Wed 10:40:33 PM 40.5980 -78.6180 236° Southwest 417 480 40,000  Level FlightAware ADS-B
Wed 10:41:13 PM 40.5540 -78.7040 236° Southwest 417 480 40,000  Level FlightAware ADS-B
Wed 10:41:58 PM 40.5070 -78.7970 236° Southwest 419 482 40,000  Level FlightAware ADS-B
Wed 10:42:38 PM 40.4630 -78.8820 236° Southwest 422 486 40,000  Level FlightAware ADS-B
Wed 10:43:23 PM 40.4110 -78.9820 236° Southwest 424 488 40,000  Level FlightAware ADS-B
Wed 10:43:58 PM 40.3740 -79.0540 236° Southwest 424 488 40,000  Level FlightAware ADS-B
Wed 10:44:43 PM 40.3230 -79.1510 235° Southwest 423 487 40,000  Level FlightAware ADS-B
Wed 10:45:28 PM 40.2740 -79.2450 236° Southwest 423 487 40,000  Level FlightAware ADS-B
Wed 10:46:08 PM 40.2300 -79.3300 236° Southwest 424 488 40,000  Level FlightAware ADS-B
Wed 10:46:48 PM 40.1890 -79.4170 238° Southwest 424 488 40,000  Level FlightAware ADS-B
Wed 10:47:33 PM 40.1460 -79.5150 240° Southwest 422 486 40,000  Level FlightAware ADS-B
Wed 10:48:13 PM 40.1060 -79.6050 240° Southwest 421 484 40,000  Level FlightAware ADS-B
Wed 10:48:58 PM 40.0610 -79.7060 240° Southwest 418 481 40,000  Level FlightAware ADS-B
Wed 10:49:38 PM 40.0220 -79.7930 240° Southwest 418 481 40,000  Level FlightAware ADS-B
Wed 10:50:23 PM 39.9790 -79.8880 239° Southwest 417 480 40,000  Level FlightAware ADS-B
Wed 10:51:03 PM 39.9400 -79.9750 240° Southwest 416 479 40,000  Level FlightAware ADS-B
Wed 10:51:43 PM 39.9010 -80.0590 239° Southwest 416 479 40,000  Level FlightAware ADS-B
Wed 10:52:23 PM 39.8640 -80.1410 240° Southwest 415 478 40,000  Level FlightAware ADS-B
Wed 10:52:58 PM 39.8290 -80.2180 239° Southwest 415 478 40,000  Level FlightAware ADS-B
Wed 10:53:48 PM 39.7810 -80.3210 239° Southwest 415 478 40,000  Level FlightAware ADS-B
Wed 10:54:33 PM 39.7380 -80.4170 240° Southwest 415 478 40,000  Level FlightAware ADS-B
Wed 10:55:13 PM 39.6930 -80.5130 239° Southwest 416 479 40,000  Level FlightAware ADS-B
Wed 10:55:58 PM 39.6510 -80.6030 239° Southwest 417 480 40,000  Level FlightAware ADS-B
Wed 10:56:38 PM 39.6100 -80.6940 240° Southwest 417 480 40,000  Level FlightAware ADS-B
Wed 10:57:23 PM 39.5650 -80.7900 239° Southwest 417 480 40,000  Level FlightAware ADS-B
Wed 10:57:58 PM 39.5310 -80.8630 239° Southwest 418 481 40,000  Level FlightAware ADS-B
Wed 10:58:43 PM 39.4840 -80.9640 239° Southwest 420 483 40,000  Level FlightAware ADS-B
Wed 10:59:28 PM 39.4400 -81.0590 239° Southwest 421 484 40,000  Level FlightAware ADS-B
Wed 11:00:08 PM 39.3990 -81.1450 238° Southwest 421 484 40,000  Level FlightAware ADS-B
Wed 11:00:48 PM 39.3580 -81.2310 238° Southwest 422 486 40,000  Level FlightAware ADS-B
Wed 11:01:33 PM 39.3130 -81.3270 239° Southwest 422 486 40,000  Level FlightAware ADS-B
Wed 11:02:13 PM 39.2720 -81.4140 239° Southwest 423 487 40,000  Level FlightAware ADS-B
Wed 11:02:58 PM 39.2260 -81.5100 238° Southwest 423 487 40,000  Level FlightAware ADS-B
Wed 11:03:38 PM 39.1840 -81.5980 238° Southwest 423 487 40,000  Level FlightAware ADS-B
Wed 11:04:13 PM 39.1520 -81.6630 238° Southwest 422 486 40,000  Level FlightAware ADS-B
Wed 11:05:03 PM 39.0970 -81.7790 239° Southwest 423 487 40,000  Level FlightAware ADS-B
Wed 11:05:43 PM 39.0560 -81.8650 238° Southwest 425 489 40,000  Level FlightAware ADS-B
Wed 11:06:28 PM 39.0100 -81.9590 238° Southwest 425 489 40,000  Level FlightAware ADS-B
Wed 11:07:08 PM 38.9680 -82.0470 238° Southwest 425 489 40,000  Level FlightAware ADS-B
Wed 11:07:48 PM 38.9280 -82.1310 239° Southwest 424 488 40,000  Level FlightAware ADS-B
Wed 11:08:33 PM 38.8790 -82.2310 238° Southwest 424 488 40,000  Level FlightAware ADS-B
Wed 11:09:13 PM 38.8380 -82.3140 238° Southwest 424 488 40,000  Level FlightAware ADS-B
Wed 11:09:58 PM 38.7910 -82.4100 238° Southwest 423 487 40,000  Level FlightAware ADS-B
Wed 11:10:38 PM 38.7500 -82.4930 238° Southwest 423 487 40,000  Level FlightAware ADS-B
Wed 11:11:18 PM 38.7080 -82.5800 238° Southwest 421 484 40,000  Level FlightAware ADS-B
Wed 11:11:58 PM 38.6680 -82.6600 237° Southwest 419 482 40,000  Level FlightAware ADS-B
Wed 11:12:43 PM 38.6220 -82.7510 237° Southwest 419 482 40,000  Level FlightAware ADS-B
Wed 11:13:23 PM 38.5860 -82.8220 237° Southwest 419 482 40,000  Level FlightAware ADS-B
Wed 11:14:08 PM 38.5330 -82.9340 239° Southwest 419 482 40,000  Level FlightAware ADS-B
Wed 11:14:34 PM 38.5028 -82.9919 236° Southwest 419 482 40,000  Level FlightAware ADS-B
Wed 11:15:05 PM 38.4706 -83.0568 238° Southwest 419 482 40,000  Level FlightAware ADS-B
Wed 11:15:36 PM 38.4375 -83.1235 238° Southwest 419 482 40,000  Level FlightAware ADS-B
Wed 11:16:13 PM 38.4010 -83.1960 237° Southwest 419 482 40,000  Level FlightAware ADS-B
Wed 11:16:53 PM 38.3630 -83.2710 237° Southwest 419 482 40,000  Level FlightAware ADS-B
Wed 11:17:38 PM 38.3170 -83.3630 238° Southwest 419 482 40,000  Level FlightAware ADS-B
Wed 11:18:18 PM 38.2810 -83.4330 237° Southwest 419 482 40,000  Level FlightAware ADS-B
Wed 11:18:58 PM 38.2450 -83.5040 237° Southwest 419 482 40,000  Level FlightAware ADS-B
Wed 11:19:43 PM 38.1810 -83.6310 237° Southwest 412 474 40,000  Level FlightAware ADS-B
Wed 11:20:38 PM 38.1290 -83.7330 237° Southwest 410 472 40,000  Level FlightAware ADS-B
Wed 11:21:18 PM 38.0940 -83.8020 237° Southwest 410 472 40,000  Level FlightAware ADS-B
Wed 11:21:58 PM 38.0430 -83.9010 237° Southwest 407 468 40,000  Level FlightAware ADS-B
Wed 11:22:38 PM 38.0020 -83.9810 237° Southwest 406 467 40,000  Level FlightAware ADS-B
Wed 11:23:28 PM 37.9500 -84.0810 237° Southwest 404 465 40,000  Level FlightAware ADS-B
Wed 11:23:50 PM 37.9255 -84.1300 238° Southwest 405 466 40,000  Level FlightAware ADS-B
Wed 11:24:21 PM 37.8936 -84.1913 237° Southwest 404 465 40,000  Level FlightAware ADS-B
Wed 11:24:54 PM 37.8600 -84.2567 237° Southwest 404 465 40,000  Level FlightAware ADS-B
Wed 11:25:25 PM 37.8285 -84.3176 237° Southwest 402 463 40,000  Level FlightAware ADS-B
Wed 11:25:55 PM 37.7973 -84.3763 236° Southwest 401 461 40,000  Level FlightAware ADS-B
Wed 11:26:50 PM 37.7418 -84.4833 237° Southwest 399 459 40,000  Level FlightAware ADS-B
Wed 11:27:20 PM 37.7112 -84.5417 236° Southwest 399 459 40,000  Level FlightAware ADS-B
Wed 11:27:51 PM 37.6801 -84.6017 237° Southwest 399 459 40,000  Level FlightAware ADS-B
Wed 11:28:22 PM 37.6485 -84.6619 236° Southwest 398 458 40,000  Level FlightAware ADS-B
Wed 11:28:53 PM 37.6169 -84.7218 236° Southwest 398 458 40,000  Level FlightAware ADS-B
Wed 11:29:24 PM 37.5857 -84.7799 236° Southwest 398 458 40,000  Level FlightAware ADS-B
Wed 11:29:56 PM 37.5531 -84.8417 236° Southwest 398 458 40,000  Level FlightAware ADS-B
Wed 11:30:29 PM 37.5190 -84.9071 237° Southwest 397 457 40,000  Level FlightAware ADS-B
Wed 11:31:00 PM 37.4877 -84.9666 236° Southwest 396 456 40,000  Level FlightAware ADS-B
Wed 11:31:30 PM 37.4571 -85.0240 236° Southwest 395 455 40,000  Level FlightAware ADS-B
Wed 11:32:01 PM 37.4257 -85.0835 236° Southwest 395 455 40,000  Level FlightAware ADS-B
Wed 11:32:32 PM 37.3943 -85.1426 236° Southwest 395 455 40,000  Level FlightAware ADS-B
Wed 11:33:02 PM 37.3635 -85.1999 236° Southwest 394 453 40,000  Level FlightAware ADS-B
Wed 11:33:33 PM 37.3325 -85.2569 236° Southwest 394 453 40,000  Level FlightAware ADS-B
Wed 11:34:07 PM 37.2978 -85.3229 237° Southwest 391 450 40,000  Level FlightAware ADS-B
Wed 11:34:43 PM 37.2613 -85.3907 236° Southwest 391 450 40,000  Level FlightAware ADS-B
Wed 11:35:28 PM 37.2160 -85.4752 236° Southwest 390 449 40,000  Level FlightAware ADS-B
Wed 11:35:58 PM 37.1854 -85.5311 236° Southwest 387 445 40,000  Level FlightAware ADS-B
Wed 11:36:29 PM 37.1545 -85.5886 236° Southwest 386 444 40,000  Level FlightAware ADS-B
Wed 11:37:00 PM 37.1239 -85.6458 236° Southwest 384 442 40,000  Level FlightAware ADS-B
Wed 11:37:48 PM 37.0810 -85.7250 236° Southwest 381 438 40,000  Level FlightAware ADS-B
Wed 11:38:15 PM 37.0497 -85.7832 236° Southwest 384 442 40,000  Level FlightAware ADS-B
Wed 11:39:10 PM 36.9949 -85.8836 236° Southwest 384 442 40,000  Level FlightAware ADS-B
Wed 11:39:41 PM 36.9633 -85.9410 235° Southwest 384 442 40,000  Level FlightAware ADS-B
Wed 11:40:14 PM 36.9295 -86.0028 236° Southwest 395 455 40,000  Level FlightAware ADS-B
Wed 11:40:45 PM 36.8979 -86.0597 235° Southwest 399 459 40,000  Level FlightAware ADS-B
Wed 11:41:17 PM 36.8640 -86.1228 236° Southwest 403 464 40,000  Level FlightAware ADS-B
Wed 11:41:47 PM 36.8321 -86.1806 235° Southwest 406 467 40,000  Level FlightAware ADS-B
Wed 11:42:18 PM 36.7996 -86.2404 236° Southwest 406 467 40,000  Level FlightAware ADS-B
Wed 11:42:53 PM 36.7625 -86.3063 235° Southwest 407 468 40,000  Level FlightAware ADS-B
Wed 11:43:25 PM 36.7275 -86.3699 236° Southwest 406 467 40,000  Level FlightAware ADS-B
Wed 11:44:13 PM 36.6810 -86.4550 236° Southwest 406 467 40,000  Level FlightAware ADS-B
Wed 11:44:48 PM 36.6420 -86.5260 236° Southwest 406 467 40,000  Level FlightAware ADS-B
Wed 11:45:33 PM 36.5990 -86.6030 235° Southwest 406 467 40,000  Level FlightAware ADS-B
Wed 11:46:13 PM 36.5620 -86.6680 235° Southwest 406 467 40,000  Level FlightAware ADS-B
Wed 11:47:03 PM 36.5160 -86.7490 235° Southwest 406 467 40,000  Level FlightAware ADS-B
Wed 11:47:43 PM 36.4790 -86.8140 235° Southwest 406 467 40,000 -1,482 Level FlightAware ADS-B
Wed 11:48:28 PM 36.4100 -86.9400 236° Southwest 388 447 37,900 -1,920 Descending FlightAware ADS-B
Wed 11:48:58 PM 36.3810 -86.9910 235° Southwest 390 449 37,600 -600 Descending FlightAware ADS-B
Wed 11:49:48 PM 36.3270 -87.0860 235° Southwest 398 458 37,100 -635 Descending FlightAware ADS-B
Wed 11:50:23 PM 36.2910 -87.1520 236° Southwest 401 461 36,700 -494 Descending FlightAware ADS-B
Wed 11:51:13 PM 36.2380 -87.2430 234° Southwest 404 465 36,400 -200 Descending FlightAware ADS-B
Wed 11:51:53 PM 36.2010 -87.3070 234° Southwest 404 465 36,400 -800 Level FlightAware ADS-B
Wed 11:52:28 PM 36.1570 -87.3880 236° Southwest 399 459 35,400 -988 Descending FlightAware ADS-B
Wed 11:53:18 PM 36.1030 -87.4810 234° Southwest 406 467 35,000 -267 Descending FlightAware ADS-B
Wed 11:53:58 PM 36.0640 -87.5480 234° Southwest 407 468 35,000  Level FlightAware ADS-B
Wed 11:54:38 PM 36.0270 -87.6120 234° Southwest 407 468 35,000  Level FlightAware ADS-B
Wed 11:55:28 PM 35.9800 -87.6920 234° Southwest 407 468 35,000  Level FlightAware ADS-B
Wed 11:56:08 PM 35.9420 -87.7560 234° Southwest 407 468 35,000  Level FlightAware ADS-B
Wed 11:56:48 PM 35.9040 -87.8200 234° Southwest 407 468 35,000  Level FlightAware ADS-B
Wed 11:57:28 PM 35.8670 -87.8840 235° Southwest 407 468 35,000  Level FlightAware ADS-B
Wed 11:58:08 PM 35.8290 -87.9480 234° Southwest 407 468 35,000  Level FlightAware ADS-B
Wed 11:58:58 PM 35.7820 -88.0280 234° Southwest 407 468 35,000  Level FlightAware ADS-B
Wed 11:59:38 PM 35.7440 -88.0920 234° Southwest 407 468 35,000  Level FlightAware ADS-B
Thu 12:00:18 AM 35.7070 -88.1550 234° Southwest 407 468 35,000  Level FlightAware ADS-B
Thu 12:00:58 AM 35.6690 -88.2190 234° Southwest 407 468 35,000  Level FlightAware ADS-B
Thu 12:01:38 AM 35.6320 -88.2830 235° Southwest 407 468 35,000  Level FlightAware ADS-B
Thu 12:02:18 AM 35.5940 -88.3470 234° Southwest 407 468 35,000  Level FlightAware ADS-B
Thu 12:03:08 AM 35.5470 -88.4260 234° Southwest 407 468 35,000 -7,672 Level FlightAware ADS-B
Thu 12:04:20 AM 35.3197 -88.7081 234° Southwest 381 438 19,400 -8,545 Descending Memphis Center
Thu 12:05:20 AM 35.2583 -88.8033 232° Southwest 361 415 16,200 -3,300 Descending Memphis Center
Thu 12:06:20 AM 35.1969 -88.8986 232° Southwest 361 415 12,800 -2,800 Descending Memphis Center
Thu 12:07:20 AM 35.1456 -88.9781 232° Southwest 350 403 10,600 -1,300 Descending Memphis Center
Thu 12:08:20 AM 35.0986 -89.0525 232° Southwest 313 360 10,200 -800 Descending Memphis Center
Thu 12:09:20 AM 35.0511 -89.1242 231° Southwest 284 327 9,000 -1,250 Descending Memphis Center
Thu 12:10:20 AM 35.0375 -89.2158 260° West 267 307 7,700 -1,250 Descending Memphis Center
Thu 12:11:20 AM 35.0403 -89.3019 272° West 262 302 6,500 -850 Descending Memphis Center
Thu 12:12:20 AM 35.0431 -89.3756 273° West 238 274 6,000 -250 Descending Memphis Center
Thu 12:13:20 AM 35.0458 -89.4492 273° West 219 252 6,000 -400 Level Memphis Center
Thu 12:14:20 AM 35.0483 -89.5225 272° West 219 252 5,200 -750 Descending Memphis Center
Thu 12:15:20 AM 35.0508 -89.6011 272° West 214 246 4,500 -850 Descending Memphis Center
Thu 12:16:20 AM 35.0514 -89.6722 271° West 214 246 3,500 -750 Descending Memphis Center
Thu 12:17:20 AM 35.0539 -89.7458 272° West 214 246 3,000 -400 Descending Memphis Center
Thu 12:18:20 AM 35.0561 -89.8142 272° West 214 246 2,700 -500 Descending Memphis Center
Thu 12:19:20 AM 35.0564 -89.8650 270° West 182 209 2,000 -742 Descending Memphis Center
Thu 12:19:49 AM 35.0500 -89.8833 247° West 104 120 1,600 -695 Descending KMEM
Thu 12:20:55 AM 35.0500 -89.9167 270° West 117 135 900 -636 Descending KMEM
Thu 12:23:00 AM 35.0333 -89.9667 270° West  Level FlightAware Approximate

Login

Don't have an account? Register now (free) for customized features, flight alerts, and more!